Spirit of New Zealand — ZMSV — position and weather

sailwx.info

Track history (hours):
 
Tides and Currents Weather Stations Pressure Air Temp Water Temp Dewpoint Dewpoint Depression Visibility Wind Speed Wind Dir Waves Ship Positions

Spirit of New Zealand

Last reported at 2018-Jan-17 23:42 UTC. Time now 2018-Jan-20 07:25 UTC.
Position S 36°23' E 175°13'.

Length 45 m; draft 4.1 m.

Type: Passenger vessel. MMSI: 512201000.

Date/timePositionNaut miles runAvg speedWind from/ knotsBaromVisibWave heightAir tempDewpointWater temp
2018-Jan-17 23:42S 36°23' E 175°13'  
2018-Jan-12 14:48S 36°27' E 174°52'0 0.0
2018-Jan-12 14:30S 36°27' E 174°52'0 0.0
2018-Jan-12 14:00S 36°27' E 174°52'0 0.0
2018-Jan-12 13:30S 36°27' E 174°52'0 0.0
2018-Jan-12 13:00S 36°27' E 174°52'0 0.0
2018-Jan-12 12:30S 36°27' E 174°52'0 0.0
2018-Jan-12 11:54S 36°27' E 174°52'0 0.0
2018-Jan-12 11:30S 36°27' E 174°52'0 0.0
2018-Jan-12 11:00S 36°27' E 174°52'0 0.0
2018-Jan-12 10:30S 36°27' E 174°52'0 0.0
2018-Jan-12 10:00S 36°27' E 174°52'0 0.0
2018-Jan-12 09:30S 36°27' E 174°52'0 0.1
2018-Jan-12 09:00S 36°27' E 174°52'0 0.0
2018-Jan-12 08:30S 36°27' E 174°52'0 0.0
2018-Jan-12 08:00S 36°27' E 174°52'1 2.1
2018-Jan-12 07:29S 36°28' E 174°53'3 6.7
2018-Jan-12 07:00S 36°25' E 174°56'3 6.5
2018-Jan-12 06:30S 36°23' E 174°58'3 5.1
2018-Jan-12 06:00S 36°21' E 175°00'2 4.3
2018-Jan-12 05:30S 36°19' E 175°03'2 3.9
2018-Jan-12 05:00S 36°18' E 175°05'3 4.4
2018-Jan-12 04:26S 36°17' E 175°07'2 3.4
2018-Jan-12 03:55S 36°16' E 175°09'1 1.8
2018-Jan-12 03:30S 36°15' E 175°09'1 1.5
2018-Jan-12 03:00S 36°15' E 175°09'1 1.6
2018-Jan-12 02:30S 36°14' E 175°10'1 1.8
2018-Jan-12 02:00S 36°14' E 175°11'3 5.3
2018-Jan-12 01:23S 36°12' E 175°15'2 5.9
2018-Jan-12 01:00S 36°11' E 175°17'2 0.6
2018-Jan-11 22:34S 36°11' E 175°19'1 6.2
2018-Jan-11 22:29S 36°11' E 175°18'2 0.3
2018-Jan-11 15:14S 36°12' E 175°20'0 0.1
2018-Jan-11 14:50S 36°12' E 175°20'0 0.0
2018-Jan-11 14:26S 36°12' E 175°20'0 0.0
2018-Jan-11 13:56S 36°12' E 175°20'0 0.0
2018-Jan-11 13:26S 36°12' E 175°20'3 0.1
2018-Jan-09 11:38S 36°09' E 175°20'6 1.0
2018-Jan-09 05:20S 36°14' E 175°16'  
Track history (hours):
 
Tides and Currents Weather Stations Pressure Air Temp Water Temp Dewpoint Dewpoint Depression Visibility Wind Speed Wind Dir Waves Ship Positions

Spirit of New Zealand

Last reported at 2018-Jan-17 23:42 UTC. Time now 2018-Jan-20 07:25 UTC.
Position S 36°23' E 175°13'.

Length 45 m; draft 4.1 m.

Type: Passenger vessel. MMSI: 512201000.

Date/timePositionNaut miles runAvg speedWind from/ knotsBaromVisibWave heightAir tempDewpointWater temp
2018-Jan-17 23:42S 36°23' E 175°13'  
2018-Jan-12 14:48S 36°27' E 174°52'0 0.0
2018-Jan-12 14:30S 36°27' E 174°52'0 0.0
2018-Jan-12 14:00S 36°27' E 174°52'0 0.0
2018-Jan-12 13:30S 36°27' E 174°52'0 0.0
2018-Jan-12 13:00S 36°27' E 174°52'0 0.0
2018-Jan-12 12:30S 36°27' E 174°52'0 0.0
2018-Jan-12 11:54S 36°27' E 174°52'0 0.0
2018-Jan-12 11:30S 36°27' E 174°52'0 0.0
2018-Jan-12 11:00S 36°27' E 174°52'0 0.0
2018-Jan-12 10:30S 36°27' E 174°52'0 0.0
2018-Jan-12 10:00S 36°27' E 174°52'0 0.0
2018-Jan-12 09:30S 36°27' E 174°52'0 0.1
2018-Jan-12 09:00S 36°27' E 174°52'0 0.0
2018-Jan-12 08:30S 36°27' E 174°52'0 0.0
2018-Jan-12 08:00S 36°27' E 174°52'1 2.1
2018-Jan-12 07:29S 36°28' E 174°53'3 6.7
2018-Jan-12 07:00S 36°25' E 174°56'3 6.5
2018-Jan-12 06:30S 36°23' E 174°58'3 5.1
2018-Jan-12 06:00S 36°21' E 175°00'2 4.3
2018-Jan-12 05:30S 36°19' E 175°03'2 3.9
2018-Jan-12 05:00S 36°18' E 175°05'3 4.4
2018-Jan-12 04:26S 36°17' E 175°07'2 3.4
2018-Jan-12 03:55S 36°16' E 175°09'1 1.8
2018-Jan-12 03:30S 36°15' E 175°09'1 1.5
2018-Jan-12 03:00S 36°15' E 175°09'1 1.6
2018-Jan-12 02:30S 36°14' E 175°10'1 1.8
2018-Jan-12 02:00S 36°14' E 175°11'3 5.3
2018-Jan-12 01:23S 36°12' E 175°15'2 5.9
2018-Jan-12 01:00S 36°11' E 175°17'2 0.6
2018-Jan-11 22:34S 36°11' E 175°19'1 6.2
2018-Jan-11 22:29S 36°11' E 175°18'2 0.3
2018-Jan-11 15:14S 36°12' E 175°20'0 0.1
2018-Jan-11 14:50S 36°12' E 175°20'0 0.0
2018-Jan-11 14:26S 36°12' E 175°20'0 0.0
2018-Jan-11 13:56S 36°12' E 175°20'0 0.0
2018-Jan-11 13:26S 36°12' E 175°20'3 0.1
2018-Jan-09 11:38S 36°09' E 175°20'6 1.0
2018-Jan-09 05:20S 36°14' E 175°16'  

Dump ship's entire track history